Rutland, VT (05701)

1:49 AM EDT on April 28, 2015 (GMT -0400)
NWS CO-OP RUTV1 | | Change Station
CLOSE
Current Station
Personal Weather Station
Location: Rutland, VT
Elevation: 620 ft
Nearby Weather Stations

Elev 620 ft 43.63 °N, 72.98 °W | Updated 3 minutes ago

Mostly Cloudy
Mostly Cloudy
42.5 °F
Feels Like 42 °F
N
0.0
Wind Variable Wind from NW
Gusts 3.0 mph

Today
High -- | Low -- °F
--% Chance of Precip.
Yesterday
High -- | Low -- °F
Precip. -- in
5:49 AM 7:50 PM
Waxing Gibbous, 71% visible
Pressure 29.74 in
Visibility 10.0 miles
Clouds Overcast 4100 ft
Windchill 42 °F
Dew Point 40 °F
Humidity 91%
Rainfall 0.00 in
Snow Depth Not available.
UV 0 out of 12
Pollen 7.00 out of 12
Air Quality Not available.
Flu Activity Regional
METAR KRUT 280535Z AUTO 03004KT 10SM OVC041 06/04 A2974 RMK AO1

More Conditions Fewer Conditions

Pressure 29.74 in
Visibility 10.0 miles
Clouds Overcast 4100 ft
Windchill 42 °F
Dew Point 40 °F
Humidity 91%
Rainfall 0.00 in
Snow Depth Not available.
UV 0 out of 12
Pollen 7.00 out of 12
Air Quality Not available.
Flu Activity Regional
METAR KRUT 280535Z AUTO 03004KT 10SM OVC041 06/04 A2974 RMK AO1

More Conditions Fewer Conditions

10-Day Weather Forecast

Almanac

Astronomy

Apr. 28, 2015 Rise Set
Actual Time
Civil Twilight
Nautical Twilight
Astronomical Twilight
Moon
Length of Visible Light
Length of Day
Tomorrow will be .
, % of the Moon is Illuminated

Today's Extremes

State Highs State Lows

Community

WunderPhotos

Upload Photos

1,817,586 photos uploaded!

WunderBlogs® & News

Nearby

Air Quality

  Air Quality AQ Index Pollutant
Not available.

Snow Depth

Station Depth Elevation

Earthquake Activity

City Distance Mag. Time & Date
Minimum magnitude displayed is 2.5.

Coastal Water Temperatures

Place Temperature

Stations

Nearby Weather Stations

Station Location Temp. Windchill Dew Point Humidity Wind Precip. Elev Updated Type